Sturgeon Bay, WI

9:34 AM CDT on September 26, 2016 (GMT -0500)
City of Sturgeon Bay | | Change Station

Elev 633 ft 44.84 °N, 87.35 °W | Updated 10 minutes ago

Mostly Cloudy
Mostly Cloudy
58.1 °F
Feels Like 58.1 °F
N
9.4
Wind Variable Wind from ENE

Today
High -- | Low -- °F
--% Chance of Precip.
Yesterday
High -- | Low -- °F
Precip. -- in
Pressure 29.82 in
Visibility 10.0 miles
Clouds Few 2900 ft
Mostly Cloudy 4500 ft
Dew Point 49 °F
Humidity 72%
Rainfall 1.97 in
Snow Depth Not available.
6:42 AM 6:38 PM
Waning Crescent, 18% visible
METAR KSUE 261356Z AUTO 25018G26KT 10SM FEW029 BKN045 13/08 A2976 RMK AO2 PK WND 26026/1350 SLP098 T01330078 PNO $
Pressure 29.82 in
Visibility 10.0 miles
Clouds Few 2900 ft
Mostly Cloudy 4500 ft
Dew Point 49 °F
Humidity 72%
Rainfall 1.97 in
Snow Depth Not available.
6:42 AM 6:38 PM
Waning Crescent, 18% visible
METAR KSUE 261356Z AUTO 25018G26KT 10SM FEW029 BKN045 13/08 A2976 RMK AO2 PK WND 26026/1350 SLP098 T01330078 PNO $

10-Day Weather Forecast

Almanac

Astronomy

Sep. 26, 2016 Rise Set
Actual Time
Civil Twilight
Nautical Twilight
Astronomical Twilight
Moon
Length of Visible Light
Length of Day
Tomorrow will be .
, % of the Moon is Illuminated

Today's Extremes

State Highs State Lows

Community

WunderPhotos

Upload Photos

1,941,887 photos uploaded!

WunderBlog® & News

Nearby

Air Quality

  Air Quality AQ Index Pollutant
Not available.

Snow Depth

Station Depth Elevation

Earthquake Activity

City Distance Mag. Time & Date
Minimum magnitude displayed is 2.5.

Coastal Water Temperatures

Place Temperature

Stations

Nearby Weather Stations

Station Location Temp. Windchill Dew Point Humidity Wind Precip. Elev Updated Type
                   

Watches & Warnings

There are currently no watches in effect.